createdAt,value
2023-02-28T00:01:36.205Z,7.25
2023-02-28T00:04:04.906Z,7.50
2023-02-28T00:06:33.801Z,7.75
2023-02-28T00:30:04.061Z,7.50
2023-02-28T00:32:33.070Z,7.50
2023-02-28T00:35:03.778Z,7.25
2023-02-28T00:37:33.092Z,7.50
2023-02-28T00:40:01.463Z,7.00
2023-02-28T00:42:30.043Z,6.50
2023-02-28T00:44:58.109Z,7.50
2023-02-28T00:47:26.893Z,7.25
2023-02-28T00:49:55.256Z,6.25
2023-02-28T00:52:23.760Z,7.00
2023-02-28T00:54:52.005Z,7.00
2023-02-28T00:57:20.785Z,7.00
2023-02-28T00:59:50.667Z,7.00
2023-02-28T01:02:21.278Z,7.00
2023-02-28T01:04:49.645Z,6.75
2023-02-28T01:07:18.269Z,7.67
2023-02-28T01:09:48.399Z,7.00
2023-02-28T01:12:17.244Z,7.75
2023-02-28T01:14:45.438Z,7.50
2023-02-28T01:17:14.109Z,7.00
2023-02-28T01:19:42.225Z,7.75
2023-02-28T01:22:12.049Z,7.00
2023-02-28T01:24:40.208Z,7.00
2023-02-28T01:27:08.665Z,7.00
2023-02-28T01:29:39.101Z,7.75
2023-02-28T01:32:07.625Z,7.00
2023-02-28T01:34:37.813Z,7.00
2023-02-28T01:37:06.563Z,7.50
2023-02-28T01:39:34.627Z,7.00
2023-02-28T01:42:03.080Z,7.00
2023-02-28T01:45:08.665Z,7.00
2023-02-28T01:47:41.088Z,7.33
2023-02-28T01:50:15.013Z,7.00
2023-02-28T01:52:44.588Z,7.50
2023-02-28T01:55:13.923Z,7.00
2023-02-28T01:57:47.013Z,7.00
2023-02-28T02:00:21.065Z,8.00
2023-02-28T02:02:52.877Z,7.00
2023-02-28T02:05:23.971Z,7.67
2023-02-28T02:07:57.976Z,7.00
2023-02-28T02:10:37.644Z,7.00
2023-02-28T02:13:36.262Z,7.75
2023-02-28T02:16:26.126Z,7.00
2023-02-28T02:18:59.203Z,6.00
2023-02-28T02:21:48.932Z,6.00
2023-02-28T02:24:29.161Z,6.75
2023-02-28T02:27:15.415Z,7.00
2023-02-28T02:30:18.789Z,7.00
2023-02-28T02:32:54.809Z,7.00
2023-02-28T02:35:30.656Z,6.33
2023-02-28T02:38:25.087Z,7.25
2023-02-28T02:41:03.670Z,7.00
2023-02-28T02:43:48.177Z,7.00
2023-02-28T02:46:34.716Z,7.00
2023-02-28T02:49:06.901Z,6.33
2023-02-28T02:51:39.821Z,7.33
2023-02-28T02:54:35.282Z,7.00
2023-02-28T02:57:10.412Z,7.00
2023-02-28T02:59:40.696Z,7.25
2023-02-28T03:02:14.018Z,6.75
2023-02-28T03:04:47.117Z,7.00
2023-02-28T03:07:15.652Z,7.50
2023-02-28T03:09:53.923Z,7.00
2023-02-28T03:12:25.362Z,7.00
2023-02-28T03:14:56.403Z,7.75
2023-02-28T03:17:41.516Z,7.00
2023-02-28T03:20:23.234Z,7.50
2023-02-28T03:23:03.749Z,7.00
2023-02-28T03:25:47.209Z,8.00
2023-02-28T03:28:53.815Z,7.50
2023-02-28T03:31:41.485Z,7.00
2023-02-28T03:34:25.787Z,7.00
2023-02-28T03:36:59.229Z,6.50
2023-02-28T03:39:31.292Z,6.67
2023-02-28T03:42:02.503Z,7.00
2023-02-28T03:44:36.704Z,7.00
2023-02-28T03:47:14.692Z,7.00
2023-02-28T03:50:22.745Z,7.25
2023-02-28T03:52:55.504Z,6.50
2023-02-28T03:55:24.443Z,6.75
2023-02-28T03:58:07.145Z,7.00
2023-02-28T04:00:42.682Z,6.75
2023-02-28T04:03:10.865Z,7.00
2023-02-28T04:06:09.213Z,6.50
2023-02-28T04:08:37.370Z,7.00
2023-02-28T04:11:16.422Z,7.00
2023-02-28T04:13:46.129Z,7.25
2023-02-28T04:16:32.178Z,6.50
2023-02-28T04:19:06.148Z,7.00
2023-02-28T04:21:40.392Z,7.00
2023-02-28T04:24:15.505Z,7.00
2023-02-28T04:26:46.523Z,8.00
2023-02-28T04:29:36.658Z,6.75
2023-02-28T04:32:05.734Z,7.00
2023-02-28T04:34:34.144Z,7.25
2023-02-28T04:37:13.302Z,6.50
2023-02-28T04:39:42.352Z,7.00
2023-02-28T04:42:11.563Z,7.00
2023-02-28T04:44:39.728Z,7.00
2023-02-28T04:47:08.229Z,6.50
2023-02-28T04:49:36.505Z,6.50
2023-02-28T04:52:05.291Z,6.75
2023-02-28T04:54:33.386Z,6.00
2023-02-28T04:57:02.669Z,6.00
2023-02-28T04:59:30.899Z,7.00
2023-02-28T05:01:59.370Z,6.00
2023-02-28T05:04:27.577Z,6.75
2023-02-28T05:06:56.564Z,6.67
2023-02-28T05:09:24.689Z,7.00
2023-02-28T05:11:53.238Z,7.00
2023-02-28T05:14:21.456Z,7.00
2023-02-28T05:16:49.975Z,7.25
2023-02-28T05:19:18.153Z,7.25
2023-02-28T05:21:53.120Z,6.75
2023-02-28T05:24:23.967Z,7.00
2023-02-28T05:26:54.545Z,7.00
2023-02-28T05:29:23.563Z,7.00
2023-02-28T05:31:52.038Z,8.00
2023-02-28T05:34:20.335Z,7.00
2023-02-28T05:36:48.755Z,6.75
2023-02-28T05:39:16.855Z,7.00
2023-02-28T05:41:45.243Z,7.00
2023-02-28T05:44:13.658Z,7.00
2023-02-28T05:46:42.068Z,6.50
2023-02-28T05:49:10.336Z,7.00
2023-02-28T05:51:41.183Z,6.25
2023-02-28T05:54:09.567Z,6.75
2023-02-28T05:56:41.188Z,6.50
2023-02-28T05:59:09.322Z,7.00
2023-02-28T06:01:50.728Z,6.50
2023-02-28T06:04:31.568Z,7.00
2023-02-28T06:07:00.713Z,7.00
2023-02-28T06:09:29.013Z,6.67
2023-02-28T06:12:05.032Z,7.00
2023-02-28T06:14:33.988Z,6.75
2023-02-28T06:17:02.732Z,6.75
2023-02-28T06:19:31.737Z,7.00
2023-02-28T06:22:00.917Z,7.00
2023-02-28T06:24:29.226Z,7.00
2023-02-28T06:26:58.783Z,7.00
2023-02-28T06:29:27.051Z,6.75
2023-02-28T06:31:55.878Z,7.25
2023-02-28T06:34:24.345Z,6.75
2023-02-28T06:36:53.453Z,6.50
2023-02-28T06:39:21.951Z,7.00
2023-02-28T06:41:55.805Z,7.00
2023-02-28T06:44:25.505Z,7.00
2023-02-28T06:46:54.172Z,6.75
2023-02-28T06:49:22.377Z,7.00
2023-02-28T06:51:51.114Z,7.00
2023-02-28T06:54:19.180Z,7.00
2023-02-28T06:56:48.358Z,7.00
2023-02-28T06:59:17.368Z,7.00
2023-02-28T07:01:46.336Z,6.50
2023-02-28T07:04:14.488Z,7.00
2023-02-28T07:06:43.077Z,8.33
2023-02-28T07:09:12.122Z,7.50
2023-02-28T07:11:42.209Z,7.00
2023-02-28T07:14:10.650Z,7.00
2023-02-28T07:16:39.264Z,7.75
2023-02-28T07:19:07.451Z,7.00
2023-02-28T07:21:35.980Z,7.00
2023-02-28T07:24:04.366Z,6.50
2023-02-28T07:26:35.280Z,7.00
2023-02-28T07:29:04.638Z,6.75
2023-02-28T07:31:33.394Z,7.50
2023-02-28T07:34:01.630Z,7.00
2023-02-28T07:36:30.157Z,7.67
2023-02-28T07:39:00.186Z,8.00
2023-02-28T07:41:31.383Z,7.00
2023-02-28T07:44:01.044Z,7.00
2023-02-28T07:46:31.185Z,7.00
2023-02-28T07:49:02.432Z,7.50
2023-02-28T07:51:31.677Z,7.75
2023-02-28T07:53:59.997Z,7.00
2023-02-28T07:56:28.919Z,7.00
2023-02-28T07:58:57.611Z,8.00
2023-02-28T08:01:26.138Z,7.00
2023-02-28T08:03:56.278Z,7.00
2023-02-28T08:06:25.934Z,7.00
2023-02-28T08:08:54.807Z,7.50
2023-02-28T08:11:23.759Z,7.00
2023-02-28T08:13:52.047Z,6.25
2023-02-28T08:16:23.598Z,6.25
2023-02-28T08:18:55.083Z,6.00
2023-02-28T08:21:23.722Z,7.50
2023-02-28T08:23:52.731Z,7.00
2023-02-28T08:26:21.896Z,7.00
2023-02-28T08:28:50.360Z,7.00
2023-02-28T08:31:20.117Z,6.75
2023-02-28T08:33:50.997Z,7.00
2023-02-28T08:36:20.076Z,6.25
2023-02-28T08:38:48.337Z,7.00
2023-02-28T08:41:16.816Z,6.25
2023-02-28T08:43:44.945Z,7.00
2023-02-28T08:46:15.104Z,6.75
2023-02-28T08:48:43.397Z,7.67
2023-02-28T08:51:22.720Z,7.67
2023-02-28T08:53:50.968Z,7.00
2023-02-28T08:56:19.981Z,7.25
2023-02-28T08:58:49.707Z,6.67
2023-02-28T09:01:23.862Z,6.50
2023-02-28T09:03:53.097Z,7.67
2023-02-28T09:06:24.038Z,7.25
2023-02-28T09:08:53.357Z,6.75
2023-02-28T09:11:22.040Z,7.50
2023-02-28T09:13:50.249Z,7.00
2023-02-28T09:16:19.220Z,6.75
2023-02-28T09:18:47.490Z,7.00
2023-02-28T09:21:18.489Z,7.25
2023-02-28T09:23:49.035Z,7.50
2023-02-28T09:26:34.922Z,7.75
2023-02-28T09:29:11.260Z,7.75
2023-02-28T09:31:39.971Z,7.00
2023-02-28T09:34:08.300Z,7.00
2023-02-28T09:36:45.207Z,7.25
2023-02-28T09:39:16.886Z,7.25
2023-02-28T09:41:51.929Z,7.25
2023-02-28T09:44:45.052Z,6.50
2023-02-28T09:47:19.220Z,7.25
2023-02-28T09:49:48.952Z,7.50
2023-02-28T09:52:24.587Z,8.00
2023-02-28T09:54:53.559Z,7.50
2023-02-28T09:57:40.394Z,6.25
2023-02-28T10:00:13.807Z,6.75
2023-02-28T10:03:20.489Z,7.25
2023-02-28T10:06:14.270Z,7.75
2023-02-28T10:08:52.312Z,7.00
2023-02-28T10:11:24.014Z,7.50
2023-02-28T10:13:52.400Z,7.00
2023-02-28T10:16:25.938Z,7.67
2023-02-28T10:19:11.265Z,7.00
2023-02-28T10:22:17.387Z,7.50
2023-02-28T10:24:54.191Z,7.00
2023-02-28T10:27:25.120Z,7.00
2023-02-28T10:29:55.993Z,7.25
2023-02-28T10:32:35.654Z,7.75
2023-02-28T10:35:24.638Z,7.00
2023-02-28T10:37:58.695Z,6.75
2023-02-28T10:40:36.896Z,7.50
2023-02-28T10:43:14.342Z,6.75
2023-02-28T10:46:04.821Z,7.50
2023-02-28T10:49:02.736Z,8.00
2023-02-28T10:51:42.237Z,8.00
2023-02-28T10:54:20.059Z,7.50
2023-02-28T10:57:13.231Z,7.67
2023-02-28T10:59:41.523Z,7.00
2023-02-28T11:05:24.641Z,7.00
2023-02-28T11:08:14.350Z,7.00
2023-02-28T11:10:48.215Z,8.00
2023-02-28T11:13:22.004Z,8.00
2023-02-28T11:15:58.352Z,7.25
2023-02-28T11:18:48.169Z,7.00
2023-02-28T11:21:26.503Z,6.75
2023-02-28T11:24:22.358Z,7.25
2023-02-28T11:26:50.672Z,8.00
2023-02-28T11:29:23.823Z,7.75
2023-02-28T11:32:14.515Z,7.33
2023-02-28T11:34:44.395Z,7.75
2023-02-28T11:37:16.088Z,7.00
2023-02-28T11:39:46.336Z,7.50
2023-02-28T11:42:33.581Z,7.50
2023-02-28T11:45:16.441Z,8.00
2023-02-28T11:48:06.617Z,7.67
2023-02-28T11:50:49.410Z,7.25
2023-02-28T11:53:40.017Z,7.00
2023-02-28T11:56:18.300Z,7.67
2023-02-28T11:59:05.043Z,9.00
2023-02-28T12:01:39.298Z,8.25
2023-02-28T12:04:43.913Z,8.50
2023-02-28T12:07:31.150Z,9.25
2023-02-28T12:10:06.700Z,8.00
2023-02-28T12:12:59.814Z,9.75
2023-02-28T12:15:39.860Z,8.50
2023-02-28T12:18:39.874Z,8.75
2023-02-28T12:21:24.584Z,8.50
2023-02-28T12:24:16.317Z,9.50
2023-02-28T12:26:48.144Z,9.33
2023-02-28T12:29:49.513Z,9.00
2023-02-28T12:32:27.156Z,9.25
2023-02-28T12:35:13.375Z,9.33
2023-02-28T12:37:42.455Z,9.00
2023-02-28T12:40:19.135Z,9.00
2023-02-28T12:42:51.776Z,9.00
2023-02-28T12:45:23.778Z,10.00
2023-02-28T12:47:57.780Z,9.75
2023-02-28T12:50:26.862Z,9.00
2023-02-28T12:53:27.855Z,9.00
2023-02-28T12:56:17.227Z,8.00
2023-02-28T12:58:59.205Z,9.75
2023-02-28T13:01:31.258Z,7.33
2023-02-28T13:04:17.808Z,9.25
2023-02-28T13:07:08.096Z,8.25
2023-02-28T13:09:36.623Z,8.00
2023-02-28T13:12:16.897Z,8.50
2023-02-28T13:14:45.311Z,7.67
2023-02-28T13:17:22.845Z,8.25
2023-02-28T13:19:54.100Z,9.00
2023-02-28T13:22:51.812Z,9.50
2023-02-28T13:25:23.139Z,8.25
2023-02-28T13:27:57.941Z,8.00
2023-02-28T13:30:56.802Z,9.00
2023-02-28T13:33:33.235Z,8.00
2023-02-28T13:36:10.985Z,9.00
2023-02-28T13:38:46.652Z,7.50
2023-02-28T13:41:30.356Z,8.25
2023-02-28T13:44:10.737Z,7.33
2023-02-28T13:46:50.909Z,8.00
2023-02-28T13:49:37.415Z,7.75
2023-02-28T13:52:09.813Z,8.00
2023-02-28T13:54:53.764Z,8.00
2023-02-28T13:57:42.198Z,7.75
2023-02-28T14:00:48.309Z,7.33
2023-02-28T14:03:41.488Z,7.50
2023-02-28T14:06:29.033Z,7.50
2023-02-28T14:09:18.431Z,7.75
2023-02-28T14:11:47.836Z,8.00
2023-02-28T14:14:37.595Z,8.00
2023-02-28T14:17:15.114Z,8.00
2023-02-28T14:19:49.204Z,8.25
2023-02-28T14:22:35.898Z,8.00
2023-02-28T14:25:32.186Z,8.00
2023-02-28T14:28:37.657Z,8.00
2023-02-28T14:31:20.674Z,7.33
2023-02-28T14:34:16.358Z,8.75
2023-02-28T14:36:46.243Z,8.00
2023-02-28T14:39:21.741Z,7.50
2023-02-28T14:41:50.057Z,7.75
2023-02-28T14:44:29.009Z,8.00
2023-02-28T14:47:06.813Z,8.00
2023-02-28T14:49:43.752Z,7.00
2023-02-28T14:52:24.662Z,8.25
2023-02-28T14:54:59.988Z,7.00
2023-02-28T14:57:31.286Z,7.75
2023-02-28T15:00:13.662Z,8.00
2023-02-28T15:02:43.090Z,7.75
2023-02-28T15:05:21.410Z,7.75
2023-02-28T15:08:02.617Z,7.75
2023-02-28T15:10:32.427Z,6.50
2023-02-28T15:13:05.862Z,8.50
2023-02-28T15:15:40.471Z,8.67
2023-02-28T15:18:27.210Z,8.00
2023-02-28T15:20:57.162Z,7.67
2023-02-28T15:23:25.844Z,7.50
2023-02-28T15:25:54.702Z,8.00
2023-02-28T15:28:24.777Z,8.00
2023-02-28T15:30:59.350Z,8.00
2023-02-28T15:33:36.561Z,7.50
2023-02-28T15:36:07.767Z,6.75
2023-02-28T15:38:37.346Z,8.00
2023-02-28T15:41:09.350Z,8.00
2023-02-28T15:43:39.401Z,7.50
2023-02-28T15:46:12.045Z,7.33
2023-02-28T15:48:53.205Z,7.50
2023-02-28T15:51:26.248Z,8.00
2023-02-28T15:54:03.139Z,8.25
2023-02-28T15:56:46.471Z,8.00
2023-02-28T15:59:21.351Z,8.25
2023-02-28T16:02:24.158Z,8.00
2023-02-28T16:05:07.582Z,8.50
2023-02-28T16:07:40.771Z,8.25
2023-02-28T16:10:12.877Z,8.00
2023-02-28T16:12:42.503Z,7.50
2023-02-28T16:15:22.820Z,8.00
2023-02-28T16:17:51.519Z,8.25
2023-02-28T16:20:21.804Z,8.25
2023-02-28T16:22:50.655Z,8.75
2023-02-28T16:25:28.252Z,8.00
2023-02-28T16:27:58.963Z,8.00
2023-02-28T16:30:29.014Z,7.25
2023-02-28T16:32:57.578Z,8.50
2023-02-28T16:35:25.943Z,7.67
2023-02-28T16:37:55.191Z,8.50
2023-02-28T16:40:26.766Z,7.33
2023-02-28T16:42:59.717Z,8.00
2023-02-28T16:45:29.785Z,7.75
2023-02-28T16:47:58.478Z,7.75
2023-02-28T16:50:31.485Z,8.00
2023-02-28T16:53:00.015Z,8.25
2023-02-28T16:55:29.017Z,7.50
2023-02-28T16:57:59.850Z,8.50
2023-02-28T17:00:29.701Z,7.75
2023-02-28T17:02:58.621Z,8.00
2023-02-28T17:05:29.633Z,8.00
2023-02-28T17:07:58.150Z,8.00
2023-02-28T17:10:28.085Z,7.75
2023-02-28T17:13:06.239Z,7.00
2023-02-28T17:15:42.094Z,8.00
2023-02-28T17:18:17.133Z,8.75
2023-02-28T17:20:46.031Z,8.25
2023-02-28T17:23:14.968Z,8.00
2023-02-28T17:25:56.373Z,8.50
2023-02-28T17:28:26.272Z,8.00
2023-02-28T17:30:54.533Z,8.50
2023-02-28T17:33:23.195Z,8.50
2023-02-28T17:35:52.036Z,7.33
2023-02-28T17:38:21.187Z,8.00
2023-02-28T17:40:49.833Z,8.00
2023-02-28T17:43:18.413Z,8.00
2023-02-28T17:45:46.614Z,8.75
2023-02-28T17:48:15.293Z,8.25
2023-02-28T17:50:43.415Z,7.50
2023-02-28T17:53:11.944Z,8.50
2023-02-28T17:55:41.435Z,8.75
2023-02-28T17:58:13.552Z,8.67
2023-02-28T18:00:41.976Z,8.00
2023-02-28T18:03:12.188Z,8.00
2023-02-28T18:05:40.905Z,7.50
2023-02-28T18:08:11.876Z,8.50
2023-02-28T18:10:40.626Z,8.33
2023-02-28T18:13:09.525Z,8.00
2023-02-28T18:15:39.774Z,8.00
2023-02-28T18:18:08.524Z,8.25
2023-02-28T18:20:37.064Z,8.75
2023-02-28T18:23:05.767Z,8.00
2023-02-28T18:25:34.070Z,7.67
2023-02-28T18:28:02.626Z,8.00
2023-02-28T18:30:33.470Z,8.00
2023-02-28T18:33:02.306Z,8.50
2023-02-28T18:35:37.681Z,8.00
2023-02-28T18:38:19.606Z,8.25
2023-02-28T18:41:02.300Z,8.00
2023-02-28T18:43:33.018Z,8.00
2023-02-28T18:46:06.434Z,7.50
2023-02-28T18:48:35.627Z,7.50
2023-02-28T18:51:11.910Z,8.50
2023-02-28T18:53:41.356Z,8.75
2023-02-28T18:56:13.418Z,7.50
2023-02-28T18:58:42.985Z,8.33
2023-02-28T19:01:21.820Z,7.67
2023-02-28T19:03:51.387Z,8.50
2023-02-28T19:06:19.982Z,9.00
2023-02-28T19:08:56.613Z,8.00
2023-02-28T19:11:25.725Z,9.00
2023-02-28T19:13:54.672Z,8.25
2023-02-28T19:16:23.050Z,8.00
2023-02-28T19:18:52.155Z,8.00
2023-02-28T19:21:22.977Z,8.25
2023-02-28T19:23:51.557Z,8.00
2023-02-28T19:26:24.501Z,8.00
2023-02-28T19:28:53.097Z,9.00
2023-02-28T19:31:24.324Z,9.00
2023-02-28T19:33:53.734Z,8.75
2023-02-28T19:36:22.674Z,8.50
2023-02-28T19:38:51.678Z,9.50
2023-02-28T19:41:20.468Z,8.00
2023-02-28T19:43:49.253Z,9.00
2023-02-28T19:46:19.134Z,8.25
2023-02-28T19:48:49.020Z,9.00
2023-02-28T19:53:46.363Z,8.00
2023-02-28T19:56:14.642Z,9.00
2023-02-28T19:58:43.267Z,9.50
2023-02-28T20:01:14.462Z,8.75
2023-02-28T20:03:43.148Z,8.75
2023-02-28T20:06:14.092Z,9.00
2023-02-28T20:08:43.546Z,8.75
2023-02-28T20:11:14.915Z,8.50
2023-02-28T20:13:44.236Z,8.50
2023-02-28T20:16:14.146Z,9.00
2023-02-28T20:18:44.743Z,10.25
2023-02-28T20:21:14.040Z,8.25
2023-02-28T20:23:43.597Z,8.00
2023-02-28T20:26:12.376Z,9.00
2023-02-28T20:28:42.293Z,9.25
2023-02-28T20:31:16.756Z,9.00
2023-02-28T20:33:46.915Z,8.25
2023-02-28T20:36:16.115Z,8.50
2023-02-28T20:38:45.043Z,9.00
2023-02-28T20:41:14.175Z,9.00
2023-02-28T20:43:43.115Z,8.50
2023-02-28T20:46:11.671Z,9.25
2023-02-28T20:48:41.028Z,9.33
2023-02-28T20:51:09.614Z,9.25
2023-02-28T20:53:38.380Z,9.50
2023-02-28T20:56:13.792Z,9.00
2023-02-28T20:58:44.789Z,9.25
2023-02-28T21:01:19.348Z,9.00
2023-02-28T21:03:50.417Z,9.50
2023-02-28T21:06:21.887Z,10.00
2023-02-28T21:08:50.803Z,8.75
2023-02-28T21:11:32.311Z,9.25
2023-02-28T21:14:03.096Z,9.25
2023-02-28T21:16:32.074Z,10.00
2023-02-28T21:19:04.902Z,9.25
2023-02-28T21:21:38.719Z,9.75
2023-02-28T21:24:09.137Z,9.50
2023-02-28T21:26:39.499Z,9.50
2023-02-28T21:29:08.530Z,9.50
2023-02-28T21:31:37.715Z,9.25
2023-02-28T21:34:08.272Z,10.00
2023-02-28T21:36:39.781Z,9.00
2023-02-28T21:39:14.145Z,9.25
2023-02-28T21:41:43.960Z,10.00
2023-02-28T21:44:18.976Z,10.00
2023-02-28T21:46:57.170Z,9.00
2023-02-28T21:49:25.940Z,10.00
2023-02-28T21:51:54.097Z,8.50
2023-02-28T21:54:22.635Z,10.00
2023-02-28T21:56:51.202Z,10.00
2023-02-28T21:59:20.603Z,10.00
2023-02-28T22:01:51.074Z,9.50
2023-02-28T22:04:22.744Z,9.00
2023-02-28T22:06:53.457Z,9.00
2023-02-28T22:09:22.106Z,9.25
2023-02-28T22:11:50.566Z,10.00
2023-02-28T22:14:20.644Z,9.50
2023-02-28T22:16:52.899Z,10.00
2023-02-28T22:19:23.092Z,9.50
2023-02-28T22:21:54.174Z,9.75
2023-02-28T22:24:24.901Z,11.00
2023-02-28T22:26:53.704Z,9.50
2023-02-28T22:29:22.791Z,10.50
2023-02-28T22:31:51.067Z,10.00
2023-02-28T22:34:20.096Z,10.33
2023-02-28T22:36:48.324Z,9.75
2023-02-28T22:39:16.862Z,9.25
2023-02-28T22:41:44.978Z,9.50
2023-02-28T22:44:13.541Z,10.00
2023-02-28T22:46:41.733Z,9.75
2023-02-28T22:49:10.377Z,9.50
2023-02-28T22:51:38.600Z,9.75
2023-02-28T22:54:07.040Z,10.25
2023-02-28T22:56:35.491Z,10.75
2023-02-28T22:59:04.144Z,9.00
2023-02-28T23:01:34.085Z,10.25
2023-02-28T23:04:03.267Z,9.75
2023-02-28T23:06:33.517Z,10.00
2023-02-28T23:09:06.224Z,9.00
2023-02-28T23:11:36.920Z,9.33
2023-02-28T23:14:06.366Z,8.50
2023-02-28T23:16:41.138Z,9.25
2023-02-28T23:19:24.124Z,9.00
2023-02-28T23:21:52.892Z,9.25
2023-02-28T23:24:24.101Z,8.75
2023-02-28T23:26:55.028Z,8.00
2023-02-28T23:29:25.259Z,9.00
2023-02-28T23:31:54.203Z,9.33
2023-02-28T23:34:32.433Z,8.67
2023-02-28T23:37:02.061Z,9.25
2023-02-28T23:39:31.719Z,8.00
2023-02-28T23:42:00.049Z,8.75
2023-02-28T23:44:28.538Z,8.67
2023-02-28T23:46:56.688Z,8.50
2023-02-28T23:49:25.956Z,8.67
2023-02-28T23:51:54.568Z,9.50
2023-02-28T23:54:23.149Z,9.00
2023-02-28T23:56:51.307Z,9.00
2023-02-28T23:59:20.001Z,10.00
